Buoy 13516

sailwx.info

Track history (hours):
 
Tides and Currents Weather Stations Pressure Air Temp Water Temp Dewpoint Dewpoint Depression Visibility Wind Speed Wind Dir Waves Ship Positions

Ao Chao Yang 13516

Last reported at 2015-Jul-07 20:53 UTC. Time now 2015-Jul-08 04:23 UTC.
Position N 24°44' W 043°58'.

Length 20 m.

Type: Fishing. MMSI: 412469022.

Water temperature 26.2 ° C

Date/timePositionNaut miles runAvg speedWind from/ knotsBaromVisibWave heightAir tempDewpointWater temp
2015-Jul-07 20:53N 24°44' W 043°58'1 0.9 26.2
2015-Jul-07 19:57N 24°45' W 043°58'0 0.0 26.2
2015-Jul-07 18:15N 24°45' W 043°58'1 0.3 26.2
2015-Jul-07 14:27N 24°45' W 043°56'1 0.7 26.0
2015-Jul-07 13:39N 24°46' W 043°56'1 0.4 25.9
2015-Jul-07 12:02N 24°46' W 043°56'0 3.6 25.9
2015-Jul-07 11:54N 24°47' W 043°56'1 0.7 25.9
2015-Jul-07 11:06N 24°47' W 043°56'0 1.9 25.8
2015-Jul-07 11:00N 24°47' W 043°56'0 0.0 25.8
2015-Jul-07 10:17N 24°47' W 043°56'0 3.3 25.8
2015-Jul-07 10:15N 24°47' W 043°56'1 0.8 25.8
2015-Jul-07 09:32N 24°47' W 043°56'0 0.0 25.9
2015-Jul-07 08:41N 24°47' W 043°56'0 2.5 25.9
2015-Jul-07 08:32N 24°47' W 043°56'0 0.0 25.9
2015-Jul-07 07:54N 24°47' W 043°56'021.8 25.9
2015-Jul-07 07:53N 24°48' W 043°56'0 0.0 25.9
2015-Jul-07 06:54N 24°48' W 043°56'0 3.3
2015-Jul-07 06:51N 24°48' W 043°57'0 0.0 25.9
2015-Jul-07 06:03N 24°48' W 043°57'110.4 25.9
2015-Jul-07 06:00N 24°48' W 043°56'1 8.1 25.9
2015-Jul-07 05:54N 24°48' W 043°57'1 0.8 25.9
2015-Jul-07 04:15N 24°47' W 043°56'0 0.0 26.0
2015-Jul-07 02:00N 24°47' W 043°56'1 0.3 26.0
2015-Jul-06 23:38N 24°47' W 043°55'0 0.7 26.1
2015-Jul-06 23:33N 24°47' W 043°55'0 2.3 26.1
2015-Jul-06 23:27N 24°46' W 043°55'0 0.2 26.1
2015-Jul-06 21:17N 24°47' W 043°55'0 0.3 26.1
2015-Jul-06 20:09N 24°46' W 043°55'0 0.0 26.2
2015-Jul-06 19:50N 24°46' W 043°55'3 0.8 26.2
2015-Jul-06 15:54N 24°47' W 043°52'2 0.4 26.2
2015-Jul-06 09:09N 24°49' W 043°50'0 0.0 25.9
2015-Jul-05 23:54N 24°49' W 043°51'0 0.5 26.0
2015-Jul-05 23:00N 24°48' W 043°51'026.6
2015-Jul-05 22:59N 24°48' W 043°51'1 7.5 26.0
2015-Jul-05 22:54N 24°48' W 043°50'1 0.5
2015-Jul-05 20:00N 24°47' W 043°49'0 0.0 26.0
2015-Jul-05 18:38N 24°47' W 043°49'1 1.9 26.0
2015-Jul-05 18:20N 24°47' W 043°48'0 0.6 26.0
2015-Jul-05 17:48N 24°47' W 043°48'115.5 26.0
2015-Jul-05 17:44N 24°47' W 043°47'0 0.0 26.0
2015-Jul-05 16:08N 24°47' W 043°47'3 0.5 25.9
2015-Jul-05 10:57N 24°47' W 043°44'2 0.6
2015-Jul-05 07:15N 24°49' W 043°43'0 0.0 25.9
2015-Jul-05 06:29N 24°49' W 043°43'0 0.1 25.9
2015-Jul-05 01:54N 24°49' W 043°43'2 0.6 25.9
2015-Jul-04 22:03N 24°47' W 043°41'2 0.4 26.1
2015-Jul-04 17:59N 24°46' W 043°41'0 0.1 26.2
2015-Jul-04 16:18N 24°46' W 043°41'1 0.4 26.2
2015-Jul-04 13:51N 24°46' W 043°40'1 0.6 26.1
2015-Jul-04 12:08N 24°46' W 043°38'1 5.0 26.0
2015-Jul-04 12:02N 24°46' W 043°38'0 0.3 26.0
2015-Jul-04 11:17N 24°46' W 043°38'1 0.3 26.0
2015-Jul-04 09:09N 24°46' W 043°37'1 7.1 26.1
2015-Jul-04 09:02N 24°46' W 043°36'0 1.1 26.1
2015-Jul-04 08:35N 24°46' W 043°37'1 0.5 26.1
2015-Jul-04 06:51N 24°46' W 043°36'1 0.5 26.3
2015-Jul-04 04:54N 24°47' W 043°35'1 0.2 26.4
2015-Jul-03 23:47N 24°48' W 043°35'0 0.4 26.6
2015-Jul-03 22:57N 24°47' W 043°35'1 0.5 26.6
2015-Jul-03 20:53N 24°46' W 043°34'0 1.1 26.7
2015-Jul-03 20:42N 24°46' W 043°35'1 0.8 26.7
2015-Jul-03 19:44N 24°46' W 043°35'0 0.0 26.7
2015-Jul-03 19:02N 24°46' W 043°35'0 0.0 26.7
2015-Jul-03 19:00N 24°46' W 043°35'0 0.6 26.7
2015-Jul-03 18:09N 24°45' W 043°34'1 0.5 26.7
2015-Jul-03 16:30N 24°45' W 043°33'1 0.6 26.7
2015-Jul-03 14:44N 24°46' W 043°32'0 0.0 26.9
2015-Jul-03 14:09N 24°46' W 043°32'0 0.6 26.7
2015-Jul-03 13:23N 24°46' W 043°32'1 0.4 26.6
2015-Jul-03 09:36N 24°47' W 043°32'0 1.0 26.4
2015-Jul-03 09:21N 24°47' W 043°31'0 5.6 26.4
2015-Jul-03 09:18N 24°47' W 043°31'0 7.4 26.4
2015-Jul-03 09:14N 24°48' W 043°31'1 4.4 26.4
2015-Jul-03 09:05N 24°47' W 043°32'1 0.4 26.4
2015-Jul-03 07:54N 24°47' W 043°31'011.3 26.4
2015-Jul-03 07:53N 24°48' W 043°31'0 0.3 26.4
2015-Jul-03 06:50N 24°48' W 043°31'0 0.3 26.5
2015-Jul-03 05:06N 24°48' W 043°30'1 6.8 26.5
2015-Jul-03 05:00N 24°49' W 043°30'0 0.0 26.5
2015-Jul-03 01:45N 24°49' W 043°30'0 9.0 26.6
2015-Jul-03 01:42N 24°49' W 043°30'1 0.7 26.6
2015-Jul-03 00:59N 24°50' W 043°30'0 2.9 26.6
2015-Jul-03 00:54N 24°49' W 043°30'0 0.3 26.6
2015-Jul-03 00:08N 24°50' W 043°30'0 0.0 26.6
2015-Jul-03 00:05N 24°50' W 043°30'0 0.6 26.6
2015-Jul-02 23:20N 24°50' W 043°30'0 2.5 26.6
2015-Jul-02 23:09N 24°50' W 043°30'0 0.2 26.6
2015-Jul-02 22:20N 24°50' W 043°30'0 0.0 26.7
2015-Jul-02 21:54N 24°50' W 043°30'1 0.6 26.7
2015-Jul-02 20:54N 24°50' W 043°30'0 0.1 26.7
2015-Jul-02 19:09N 24°50' W 043°30'1 0.2 26.8
2015-Jul-02 14:54N 24°50' W 043°29'0 0.1 26.6
2015-Jul-02 12:05N 24°50' W 043°29'1 0.9 26.6
2015-Jul-02 11:08N 24°50' W 043°28'1 0.5
2015-Jul-02 10:02N 24°50' W 043°28'1 0.4 26.5
2015-Jul-02 07:00N 24°49' W 043°28'1 0.8 26.5
2015-Jul-02 05:18N 24°50' W 043°27'2 0.5 26.5
2015-Jul-02 01:20N 24°52' W 043°25'1 0.3 26.6
2015-Jul-01 22:47N 24°52' W 043°25'1 0.5 26.6
2015-Jul-01 21:05N 24°53' W 043°26'012.6
2015-Jul-01 21:03N 24°53' W 043°26'0 0.2 26.7
2015-Jul-01 19:59N 24°53' W 043°26'1 0.4 26.9
2015-Jul-01 16:53N 24°53' W 043°27'1 0.4 26.9
2015-Jul-01 15:09N 24°53' W 043°26'0 0.1 26.7
2015-Jul-01 14:05N 24°53' W 043°26'0 0.2 26.5
2015-Jul-01 11:27N 24°53' W 043°26'1 0.9 26.1
2015-Jul-01 10:23N 24°52' W 043°26'0 0.9 26.0
2015-Jul-01 10:06N 24°52' W 043°26'1 1.3 26.0
2015-Jul-01 09:41N 24°52' W 043°25'0 0.5 26.0
2015-Jul-01 08:51N 24°52' W 043°26'0 1.0 26.0
2015-Jul-01 08:24N 24°52' W 043°25'0 0.7 26.0
2015-Jul-01 08:08N 24°52' W 043°25'0 0.0 26.0
2015-Jul-01 07:59N 24°52' W 043°25'0 1.0 26.0
2015-Jul-01 07:54N 24°52' W 043°25'0 0.0 26.0
2015-Jul-01 07:09N 24°52' W 043°25'0 0.0 26.0
2015-Jul-01 07:05N 24°52' W 043°25'3 0.8 26.0
2015-Jul-01 03:51N 24°54' W 043°23'2 0.4 26.1
2015-Jun-30 23:53N 24°55' W 043°22'0 0.1 26.2
2015-Jun-30 23:03N 24°55' W 043°22'0 0.4 26.3
2015-Jun-30 22:02N 24°56' W 043°22'0 0.5 26.4
2015-Jun-30 21:14N 24°56' W 043°23'1 0.3 26.5
2015-Jun-30 17:53N 24°56' W 043°22'0 0.1 26.7
2015-Jun-30 17:03N 24°56' W 043°22'0 0.1 26.6
2015-Jun-30 11:05N 24°57' W 043°21'0 0.0 26.0
2015-Jun-30 10:35N 24°57' W 043°21'1 0.5 25.9
2015-Jun-30 08:09N 24°57' W 043°20'0 0.0 26.0
2015-Jun-30 08:06N 24°57' W 043°20'2 0.5 26.0
2015-Jun-30 04:03N 24°58' W 043°18'0 1.9 26.2
2015-Jun-30 03:59N 24°58' W 043°18'2 0.6 26.2
2015-Jun-30 01:03N 24°60' W 043°17'1 0.3 26.3
2015-Jun-29 20:51N 25°01' W 043°17'0 3.0 26.8
2015-Jun-29 20:42N 25°01' W 043°17'0 0.2 26.8
2015-Jun-29 19:06N 25°01' W 043°16'0 0.0 27.0
2015-Jun-29 18:05N 25°01' W 043°16'0 0.3 27.2
2015-Jun-29 17:15N 25°01' W 043°16'1 0.2 27.3
2015-Jun-29 13:54N 25°02' W 043°16'0 0.3 26.7
2015-Jun-29 13:03N 25°02' W 043°15'0 0.3 26.6
2015-Jun-29 12:09N 25°02' W 043°15'0 5.9 26.3
2015-Jun-29 12:05N 25°03' W 043°15'0 0.2 26.3
2015-Jun-29 10:06N 25°03' W 043°15'1 0.3 26.1
2015-Jun-29 06:44N 25°03' W 043°14'0 4.0 26.2
2015-Jun-29 06:39N 25°03' W 043°14'1 0.3 26.2
2015-Jun-29 04:09N 25°04' W 043°13'113.3 26.2
2015-Jun-29 04:05N 25°04' W 043°13'1 0.2 26.2
2015-Jun-28 23:50N 25°05' W 043°12'0 0.3 26.3
2015-Jun-28 23:02N 25°05' W 043°12'0 4.9 26.4
2015-Jun-28 22:59N 25°05' W 043°12'1 0.4 26.4
2015-Jun-28 20:00N 25°05' W 043°11'1 0.6 26.7
2015-Jun-28 18:18N 25°05' W 043°10'3 0.4 26.6
2015-Jun-28 10:53N 25°07' W 043°07'0 0.2 26.0
2015-Jun-28 10:02N 25°07' W 043°07'0 2.2 26.0
2015-Jun-28 09:54N 25°07' W 043°07'0 0.1 26.0
2015-Jun-28 06:53N 25°07' W 043°07'0 0.4 26.0
2015-Jun-28 06:05N 25°07' W 043°07'0 5.4 26.0
2015-Jun-28 06:02N 25°07' W 043°06'0 3.9 26.0
2015-Jun-28 05:57N 25°07' W 043°06'1 0.4 26.0
2015-Jun-28 04:17N 25°07' W 043°05'0 0.0 26.0
2015-Jun-28 01:48N 25°07' W 043°05'0 5.6 26.0
2015-Jun-28 01:45N 25°07' W 043°05'0 0.5 26.0
2015-Jun-28 01:03N 25°08' W 043°05'110.1 26.0
2015-Jun-28 01:00N 25°08' W 043°04'   26.0
Track history (hours):
 
Tides and Currents Weather Stations Pressure Air Temp Water Temp Dewpoint Dewpoint Depression Visibility Wind Speed Wind Dir Waves Ship Positions

Ao Chao Yang 13516

Last reported at 2015-Jul-07 20:53 UTC. Time now 2015-Jul-08 04:23 UTC.
Position N 24°44' W 043°58'.

Length 20 m.

Type: Fishing. MMSI: 412469022.

Water temperature 26.2 ° C

Date/timePositionNaut miles runAvg speedWind from/ knotsBaromVisibWave heightAir tempDewpointWater temp
2015-Jul-07 20:53N 24°44' W 043°58'1 0.9 26.2
2015-Jul-07 19:57N 24°45' W 043°58'0 0.0 26.2
2015-Jul-07 18:15N 24°45' W 043°58'1 0.3 26.2
2015-Jul-07 14:27N 24°45' W 043°56'1 0.7 26.0
2015-Jul-07 13:39N 24°46' W 043°56'1 0.4 25.9
2015-Jul-07 12:02N 24°46' W 043°56'0 3.6 25.9
2015-Jul-07 11:54N 24°47' W 043°56'1 0.7 25.9
2015-Jul-07 11:06N 24°47' W 043°56'0 1.9 25.8
2015-Jul-07 11:00N 24°47' W 043°56'0 0.0 25.8
2015-Jul-07 10:17N 24°47' W 043°56'0 3.3 25.8
2015-Jul-07 10:15N 24°47' W 043°56'1 0.8 25.8
2015-Jul-07 09:32N 24°47' W 043°56'0 0.0 25.9
2015-Jul-07 08:41N 24°47' W 043°56'0 2.5 25.9
2015-Jul-07 08:32N 24°47' W 043°56'0 0.0 25.9
2015-Jul-07 07:54N 24°47' W 043°56'021.8 25.9
2015-Jul-07 07:53N 24°48' W 043°56'0 0.0 25.9
2015-Jul-07 06:54N 24°48' W 043°56'0 3.3
2015-Jul-07 06:51N 24°48' W 043°57'0 0.0 25.9
2015-Jul-07 06:03N 24°48' W 043°57'110.4 25.9
2015-Jul-07 06:00N 24°48' W 043°56'1 8.1 25.9
2015-Jul-07 05:54N 24°48' W 043°57'1 0.8 25.9
2015-Jul-07 04:15N 24°47' W 043°56'0 0.0 26.0
2015-Jul-07 02:00N 24°47' W 043°56'1 0.3 26.0
2015-Jul-06 23:38N 24°47' W 043°55'0 0.7 26.1
2015-Jul-06 23:33N 24°47' W 043°55'0 2.3 26.1
2015-Jul-06 23:27N 24°46' W 043°55'0 0.2 26.1
2015-Jul-06 21:17N 24°47' W 043°55'0 0.3 26.1
2015-Jul-06 20:09N 24°46' W 043°55'0 0.0 26.2
2015-Jul-06 19:50N 24°46' W 043°55'3 0.8 26.2
2015-Jul-06 15:54N 24°47' W 043°52'2 0.4 26.2
2015-Jul-06 09:09N 24°49' W 043°50'0 0.0 25.9
2015-Jul-05 23:54N 24°49' W 043°51'0 0.5 26.0
2015-Jul-05 23:00N 24°48' W 043°51'026.6
2015-Jul-05 22:59N 24°48' W 043°51'1 7.5 26.0
2015-Jul-05 22:54N 24°48' W 043°50'1 0.5
2015-Jul-05 20:00N 24°47' W 043°49'0 0.0 26.0
2015-Jul-05 18:38N 24°47' W 043°49'1 1.9 26.0
2015-Jul-05 18:20N 24°47' W 043°48'0 0.6 26.0
2015-Jul-05 17:48N 24°47' W 043°48'115.5 26.0
2015-Jul-05 17:44N 24°47' W 043°47'0 0.0 26.0
2015-Jul-05 16:08N 24°47' W 043°47'3 0.5 25.9
2015-Jul-05 10:57N 24°47' W 043°44'2 0.6
2015-Jul-05 07:15N 24°49' W 043°43'0 0.0 25.9
2015-Jul-05 06:29N 24°49' W 043°43'0 0.1 25.9
2015-Jul-05 01:54N 24°49' W 043°43'2 0.6 25.9
2015-Jul-04 22:03N 24°47' W 043°41'2 0.4 26.1
2015-Jul-04 17:59N 24°46' W 043°41'0 0.1 26.2
2015-Jul-04 16:18N 24°46' W 043°41'1 0.4 26.2
2015-Jul-04 13:51N 24°46' W 043°40'1 0.6 26.1
2015-Jul-04 12:08N 24°46' W 043°38'1 5.0 26.0
2015-Jul-04 12:02N 24°46' W 043°38'0 0.3 26.0
2015-Jul-04 11:17N 24°46' W 043°38'1 0.3 26.0
2015-Jul-04 09:09N 24°46' W 043°37'1 7.1 26.1
2015-Jul-04 09:02N 24°46' W 043°36'0 1.1 26.1
2015-Jul-04 08:35N 24°46' W 043°37'1 0.5 26.1
2015-Jul-04 06:51N 24°46' W 043°36'1 0.5 26.3
2015-Jul-04 04:54N 24°47' W 043°35'1 0.2 26.4
2015-Jul-03 23:47N 24°48' W 043°35'0 0.4 26.6
2015-Jul-03 22:57N 24°47' W 043°35'1 0.5 26.6
2015-Jul-03 20:53N 24°46' W 043°34'0 1.1 26.7
2015-Jul-03 20:42N 24°46' W 043°35'1 0.8 26.7
2015-Jul-03 19:44N 24°46' W 043°35'0 0.0 26.7
2015-Jul-03 19:02N 24°46' W 043°35'0 0.0 26.7
2015-Jul-03 19:00N 24°46' W 043°35'0 0.6 26.7
2015-Jul-03 18:09N 24°45' W 043°34'1 0.5 26.7
2015-Jul-03 16:30N 24°45' W 043°33'1 0.6 26.7
2015-Jul-03 14:44N 24°46' W 043°32'0 0.0 26.9
2015-Jul-03 14:09N 24°46' W 043°32'0 0.6 26.7
2015-Jul-03 13:23N 24°46' W 043°32'1 0.4 26.6
2015-Jul-03 09:36N 24°47' W 043°32'0 1.0 26.4
2015-Jul-03 09:21N 24°47' W 043°31'0 5.6 26.4
2015-Jul-03 09:18N 24°47' W 043°31'0 7.4 26.4
2015-Jul-03 09:14N 24°48' W 043°31'1 4.4 26.4
2015-Jul-03 09:05N 24°47' W 043°32'1 0.4 26.4
2015-Jul-03 07:54N 24°47' W 043°31'011.3 26.4
2015-Jul-03 07:53N 24°48' W 043°31'0 0.3 26.4
2015-Jul-03 06:50N 24°48' W 043°31'0 0.3 26.5
2015-Jul-03 05:06N 24°48' W 043°30'1 6.8 26.5
2015-Jul-03 05:00N 24°49' W 043°30'0 0.0 26.5
2015-Jul-03 01:45N 24°49' W 043°30'0 9.0 26.6
2015-Jul-03 01:42N 24°49' W 043°30'1 0.7 26.6
2015-Jul-03 00:59N 24°50' W 043°30'0 2.9 26.6
2015-Jul-03 00:54N 24°49' W 043°30'0 0.3 26.6
2015-Jul-03 00:08N 24°50' W 043°30'0 0.0 26.6
2015-Jul-03 00:05N 24°50' W 043°30'0 0.6 26.6
2015-Jul-02 23:20N 24°50' W 043°30'0 2.5 26.6
2015-Jul-02 23:09N 24°50' W 043°30'0 0.2 26.6
2015-Jul-02 22:20N 24°50' W 043°30'0 0.0 26.7
2015-Jul-02 21:54N 24°50' W 043°30'1 0.6 26.7
2015-Jul-02 20:54N 24°50' W 043°30'0 0.1 26.7
2015-Jul-02 19:09N 24°50' W 043°30'1 0.2 26.8
2015-Jul-02 14:54N 24°50' W 043°29'0 0.1 26.6
2015-Jul-02 12:05N 24°50' W 043°29'1 0.9 26.6
2015-Jul-02 11:08N 24°50' W 043°28'1 0.5
2015-Jul-02 10:02N 24°50' W 043°28'1 0.4 26.5
2015-Jul-02 07:00N 24°49' W 043°28'1 0.8 26.5
2015-Jul-02 05:18N 24°50' W 043°27'2 0.5 26.5
2015-Jul-02 01:20N 24°52' W 043°25'1 0.3 26.6
2015-Jul-01 22:47N 24°52' W 043°25'1 0.5 26.6
2015-Jul-01 21:05N 24°53' W 043°26'012.6
2015-Jul-01 21:03N 24°53' W 043°26'0 0.2 26.7
2015-Jul-01 19:59N 24°53' W 043°26'1 0.4 26.9
2015-Jul-01 16:53N 24°53' W 043°27'1 0.4 26.9
2015-Jul-01 15:09N 24°53' W 043°26'0 0.1 26.7
2015-Jul-01 14:05N 24°53' W 043°26'0 0.2 26.5
2015-Jul-01 11:27N 24°53' W 043°26'1 0.9 26.1
2015-Jul-01 10:23N 24°52' W 043°26'0 0.9 26.0
2015-Jul-01 10:06N 24°52' W 043°26'1 1.3 26.0
2015-Jul-01 09:41N 24°52' W 043°25'0 0.5 26.0
2015-Jul-01 08:51N 24°52' W 043°26'0 1.0 26.0
2015-Jul-01 08:24N 24°52' W 043°25'0 0.7 26.0
2015-Jul-01 08:08N 24°52' W 043°25'0 0.0 26.0
2015-Jul-01 07:59N 24°52' W 043°25'0 1.0 26.0
2015-Jul-01 07:54N 24°52' W 043°25'0 0.0 26.0
2015-Jul-01 07:09N 24°52' W 043°25'0 0.0 26.0
2015-Jul-01 07:05N 24°52' W 043°25'3 0.8 26.0
2015-Jul-01 03:51N 24°54' W 043°23'2 0.4 26.1
2015-Jun-30 23:53N 24°55' W 043°22'0 0.1 26.2
2015-Jun-30 23:03N 24°55' W 043°22'0 0.4 26.3
2015-Jun-30 22:02N 24°56' W 043°22'0 0.5 26.4
2015-Jun-30 21:14N 24°56' W 043°23'1 0.3 26.5
2015-Jun-30 17:53N 24°56' W 043°22'0 0.1 26.7
2015-Jun-30 17:03N 24°56' W 043°22'0 0.1 26.6
2015-Jun-30 11:05N 24°57' W 043°21'0 0.0 26.0
2015-Jun-30 10:35N 24°57' W 043°21'1 0.5 25.9
2015-Jun-30 08:09N 24°57' W 043°20'0 0.0 26.0
2015-Jun-30 08:06N 24°57' W 043°20'2 0.5 26.0
2015-Jun-30 04:03N 24°58' W 043°18'0 1.9 26.2
2015-Jun-30 03:59N 24°58' W 043°18'2 0.6 26.2
2015-Jun-30 01:03N 24°60' W 043°17'1 0.3 26.3
2015-Jun-29 20:51N 25°01' W 043°17'0 3.0 26.8
2015-Jun-29 20:42N 25°01' W 043°17'0 0.2 26.8
2015-Jun-29 19:06N 25°01' W 043°16'0 0.0 27.0
2015-Jun-29 18:05N 25°01' W 043°16'0 0.3 27.2
2015-Jun-29 17:15N 25°01' W 043°16'1 0.2 27.3
2015-Jun-29 13:54N 25°02' W 043°16'0 0.3 26.7
2015-Jun-29 13:03N 25°02' W 043°15'0 0.3 26.6
2015-Jun-29 12:09N 25°02' W 043°15'0 5.9 26.3
2015-Jun-29 12:05N 25°03' W 043°15'0 0.2 26.3
2015-Jun-29 10:06N 25°03' W 043°15'1 0.3 26.1
2015-Jun-29 06:44N 25°03' W 043°14'0 4.0 26.2
2015-Jun-29 06:39N 25°03' W 043°14'1 0.3 26.2
2015-Jun-29 04:09N 25°04' W 043°13'113.3 26.2
2015-Jun-29 04:05N 25°04' W 043°13'1 0.2 26.2
2015-Jun-28 23:50N 25°05' W 043°12'0 0.3 26.3
2015-Jun-28 23:02N 25°05' W 043°12'0 4.9 26.4
2015-Jun-28 22:59N 25°05' W 043°12'1 0.4 26.4
2015-Jun-28 20:00N 25°05' W 043°11'1 0.6 26.7
2015-Jun-28 18:18N 25°05' W 043°10'3 0.4 26.6
2015-Jun-28 10:53N 25°07' W 043°07'0 0.2 26.0
2015-Jun-28 10:02N 25°07' W 043°07'0 2.2 26.0
2015-Jun-28 09:54N 25°07' W 043°07'0 0.1 26.0
2015-Jun-28 06:53N 25°07' W 043°07'0 0.4 26.0
2015-Jun-28 06:05N 25°07' W 043°07'0 5.4 26.0
2015-Jun-28 06:02N 25°07' W 043°06'0 3.9 26.0
2015-Jun-28 05:57N 25°07' W 043°06'1 0.4 26.0
2015-Jun-28 04:17N 25°07' W 043°05'0 0.0 26.0
2015-Jun-28 01:48N 25°07' W 043°05'0 5.6 26.0
2015-Jun-28 01:45N 25°07' W 043°05'0 0.5 26.0
2015-Jun-28 01:03N 25°08' W 043°05'110.1 26.0
2015-Jun-28 01:00N 25°08' W 043°04'   26.0

Dump ship's entire track history